Time;durP1;ratioP1;P1;durP2;ratioP2;P2;SDS_P1;SDS_P2;PMS_P1;PMS_P2;Temp;Humidity;BMP_temperature;BMP_pressure;BME280_temperature;BME280_humidity;BME280_pressure;Samples;Min_cycle;Max_cycle;Signal;HPM_P1;HPM_P2
2023/01/05 00:01:09;;;;;;;20.73;3.15;;;9.20;99.90;;;;;;5032127;28;20048;-85
2023/01/05 00:03:36;;;;;;;22.27;3.90;;;9.20;99.90;;;;;;5033548;28;20125;-84
2023/01/05 00:06:04;;;;;;;23.83;3.75;;;9.20;99.90;;;;;;5048988;28;20439;-84
2023/01/05 00:08:30;;;;;;;24.20;3.92;;;9.20;99.90;;;;;;5039213;28;20597;-82
2023/01/05 00:24:38;;;;;;;18.45;3.40;;;9.20;99.90;;;;;;5043845;28;20041;-84
2023/01/05 00:27:04;;;;;;;18.73;3.78;;;9.20;99.90;;;;;;5033502;28;20509;-83
2023/01/05 00:29:29;;;;;;;24.40;3.83;;;9.20;99.90;;;;;;5042663;28;20065;-83
2023/01/05 00:31:55;;;;;;;27.02;4.43;;;9.10;99.90;;;;;;5049834;28;20110;-84
2023/01/05 00:34:20;;;;;;;25.35;4.75;;;9.20;99.90;;;;;;5042113;28;20099;-83
2023/01/05 00:36:46;;;;;;;19.10;3.80;;;9.20;99.90;;;;;;5048979;28;20037;-86
2023/01/05 00:39:11;;;;;;;27.52;5.50;;;9.20;99.90;;;;;;5049256;28;20045;-84
2023/01/05 00:41:37;;;;;;;28.10;5.30;;;9.10;99.90;;;;;;5049341;28;20037;-84
2023/01/05 00:44:02;;;;;;;20.10;3.97;;;9.10;99.90;;;;;;5048517;28;20040;-83
2023/01/05 00:46:28;;;;;;;24.55;4.68;;;9.10;99.90;;;;;;5048601;28;20067;-86
2023/01/05 00:48:53;;;;;;;22.77;4.10;;;9.00;99.90;;;;;;5048040;28;20502;-85
2023/01/05 00:51:19;;;;;;;30.30;4.80;;;9.00;99.90;;;;;;5030400;28;20360;-84
2023/01/05 00:53:47;;;;;;;25.35;4.60;;;9.00;99.90;;;;;;5032372;28;20616;-87
2023/01/05 00:56:12;;;;;;;27.77;5.15;;;9.10;99.90;;;;;;5038301;28;20128;-84
2023/01/05 00:58:38;;;;;;;24.23;4.72;;;9.00;99.90;;;;;;5027265;28;20116;-86
2023/01/05 01:01:11;;;;;;;32.90;4.90;;;9.10;99.90;;;;;;5048313;28;20037;-86
2023/01/05 01:03:37;;;;;;;23.80;4.53;;;9.10;99.90;;;;;;5043031;28;20490;-85
2023/01/05 01:06:02;;;;;;;28.23;4.38;;;9.10;99.90;;;;;;5047820;28;20050;-86
2023/01/05 01:08:28;;;;;;;23.90;4.05;;;9.10;99.90;;;;;;5048546;28;20154;-85
2023/01/05 01:10:53;;;;;;;29.98;4.15;;;9.10;99.90;;;;;;5032336;28;20041;-85
2023/01/05 01:13:19;;;;;;;29.35;4.60;;;9.20;99.90;;;;;;5048296;28;20033;-84
2023/01/05 01:15:45;;;;;;;23.77;3.63;;;9.10;99.90;;;;;;5049175;28;20037;-83
2023/01/05 01:18:10;;;;;;;26.02;4.05;;;9.20;99.90;;;;;;5048888;28;20041;-84
2023/01/05 01:20:36;;;;;;;22.02;4.05;;;9.20;99.90;;;;;;5049271;28;20414;-84
2023/01/05 01:23:03;;;;;;;26.98;4.82;;;9.20;99.90;;;;;;5049476;28;20051;-84
2023/01/05 01:25:29;;;;;;;26.20;3.85;;;9.20;99.90;;;;;;5048067;28;20049;-85
2023/01/05 01:27:55;;;;;;;21.48;4.38;;;9.20;99.90;;;;;;5047771;28;20029;-85
2023/01/05 01:30:20;;;;;;;22.67;3.38;;;9.20;99.90;;;;;;5049298;28;20532;-84
2023/01/05 01:32:46;;;;;;;20.75;3.47;;;9.30;99.90;;;;;;5049244;28;20056;-85
2023/01/05 01:35:12;;;;;;;26.70;4.45;;;9.40;99.90;;;;;;5031377;28;20496;-84
2023/01/05 01:37:38;;;;;;;21.23;3.78;;;9.40;99.90;;;;;;5028051;28;20063;-86
2023/01/05 01:40:04;;;;;;;19.33;3.58;;;9.40;99.90;;;;;;5049506;28;20044;-86
2023/01/05 01:42:30;;;;;;;24.67;4.20;;;9.50;99.90;;;;;;5040197;28;20076;-85
2023/01/05 01:45:05;;;;;;;17.92;3.25;;;9.50;99.90;;;;;;5032372;28;20079;-85
2023/01/05 01:47:46;;;;;;;21.05;3.38;;;9.50;99.90;;;;;;5044360;28;20036;-89
2023/01/05 01:50:17;;;;;;;19.10;3.58;;;9.50;99.90;;;;;;5047910;28;20124;-85
2023/01/05 01:52:46;;;;;;;21.48;4.55;;;9.50;99.90;;;;;;5027128;28;20112;-85
2023/01/05 01:55:13;;;;;;;27.60;4.15;;;9.40;99.90;;;;;;5045489;28;20049;-84
2023/01/05 01:57:39;;;;;;;22.85;3.67;;;9.40;99.90;;;;;;5047383;28;20120;-84
2023/01/05 02:00:08;;;;;;;24.65;3.70;;;9.40;99.90;;;;;;5048457;28;20048;-84
2023/01/05 02:02:33;;;;;;;26.15;3.42;;;9.40;99.90;;;;;;5045060;28;20034;-84
2023/01/05 02:05:05;;;;;;;26.85;3.60;;;9.50;99.90;;;;;;5041996;28;20115;-84
2023/01/05 02:07:33;;;;;;;18.05;3.33;;;9.50;99.90;;;;;;5028604;28;20067;-84
2023/01/05 02:10:01;;;;;;;28.65;4.70;;;9.50;99.90;;;;;;5031607;28;20090;-86
2023/01/05 02:12:39;;;;;;;26.35;5.15;;;9.50;99.90;;;;;;5048956;28;20066;-85
2023/01/05 02:15:24;;;;;;;19.67;3.42;;;9.50;99.90;;;;;;5045685;28;20119;-85
2023/01/05 02:18:21;;;;;;;19.15;3.08;;;9.50;99.90;;;;;;5047686;28;20037;-84
2023/01/05 02:21:06;;;;;;;22.05;3.75;;;9.50;99.90;;;;;;5049139;28;20068;-84
2023/01/05 02:24:25;;;;;;;23.90;3.75;;;9.50;99.90;;;;;;5051398;28;20136;-83
2023/01/05 02:27:27;;;;;;;20.67;3.80;;;9.50;99.90;;;;;;5015500;28;20140;-85
2023/01/05 02:30:26;;;;;;;20.90;3.53;;;9.50;99.90;;;;;;5009648;28;20037;-85
2023/01/05 02:33:10;;;;;;;19.15;3.60;;;9.40;99.90;;;;;;5047121;28;20394;-85
2023/01/05 02:35:50;;;;;;;21.48;3.35;;;9.40;99.90;;;;;;5026680;28;20047;-84
2023/01/05 02:38:41;;;;;;;22.60;3.30;;;9.30;99.90;;;;;;5035073;28;20052;-83
2023/01/05 02:41:15;;;;;;;22.70;4.22;;;9.30;99.90;;;;;;5049701;28;20036;-84
2023/01/05 02:43:44;;;;;;;24.60;3.80;;;9.30;99.90;;;;;;5051082;28;20037;-83
2023/01/05 02:46:09;;;;;;;23.30;3.47;;;9.30;99.90;;;;;;5050842;28;20048;-84
2023/01/05 02:48:35;;;;;;;20.65;4.53;;;9.30;99.90;;;;;;5050327;28;20037;-83
2023/01/05 02:51:12;;;;;;;19.95;3.17;;;9.30;99.90;;;;;;5052907;28;20041;-84
2023/01/05 02:53:41;;;;;;;20.40;4.47;;;9.30;99.90;;;;;;5045686;28;20040;-83
2023/01/05 02:56:11;;;;;;;19.65;3.88;;;9.30;99.90;;;;;;5049214;28;20068;-84
2023/01/05 02:58:49;;;;;;;24.27;3.88;;;9.30;99.90;;;;;;5036003;28;20119;-84
2023/01/05 03:01:21;;;;;;;20.05;3.75;;;9.30;99.90;;;;;;5051877;28;20619;-84
2023/01/05 03:04:00;;;;;;;25.10;3.60;;;9.30;99.90;;;;;;5045931;28;20132;-84
2023/01/05 03:06:55;;;;;;;22.27;3.95;;;9.30;99.90;;;;;;5051425;28;20075;-85
2023/01/05 03:09:25;;;;;;;29.02;3.80;;;9.30;99.90;;;;;;5044434;28;20049;-86
2023/01/05 03:14:54;;;;;;;27.83;4.72;;;9.30;99.90;;;;;;5050043;28;20521;-84
2023/01/05 03:17:41;;;;;;;22.35;5.25;;;9.30;99.90;;;;;;5052422;28;20041;-84
2023/01/05 03:20:08;;;;;;;19.10;3.70;;;9.20;99.90;;;;;;5051910;28;20037;-85
2023/01/05 03:37:15;;;;;;;25.65;4.15;;;9.30;99.90;;;;;;5049717;28;20073;-84
2023/01/05 03:39:43;;;;;;;22.10;4.68;;;9.30;99.90;;;;;;5050217;28;20041;-86
2023/01/05 03:42:10;;;;;;;25.95;4.70;;;9.30;99.90;;;;;;5045983;28;20410;-85
2023/01/05 03:44:37;;;;;;;21.38;4.65;;;9.30;99.90;;;;;;5029991;28;20037;-85
2023/01/05 03:47:03;;;;;;;26.30;4.25;;;9.30;99.90;;;;;;5029012;28;20076;-85
2023/01/05 03:49:30;;;;;;;26.23;4.05;;;9.30;99.90;;;;;;5049886;28;20064;-84
2023/01/05 03:51:55;;;;;;;28.30;5.18;;;9.30;99.90;;;;;;5050754;28;20025;-84
2023/01/05 03:54:21;;;;;;;17.70;4.03;;;9.20;99.90;;;;;;5033934;28;20145;-85
2023/01/05 03:56:46;;;;;;;20.60;4.10;;;9.20;99.90;;;;;;5051418;28;20089;-84
2023/01/05 03:59:12;;;;;;;27.92;5.15;;;9.20;99.90;;;;;;5049559;28;20460;-84
2023/01/05 04:01:37;;;;;;;23.05;3.58;;;9.20;99.90;;;;;;5050738;28;20045;-87
2023/01/05 04:04:03;;;;;;;23.92;4.47;;;9.30;99.90;;;;;;5050154;28;20521;-82
2023/01/05 04:06:28;;;;;;;19.25;3.83;;;9.30;99.90;;;;;;5049319;28;20406;-85
2023/01/05 04:08:54;;;;;;;25.05;3.70;;;9.20;99.90;;;;;;5049055;28;20505;-85
2023/01/05 04:11:22;;;;;;;24.98;3.80;;;9.20;99.90;;;;;;5045508;28;20460;-85
2023/01/05 04:13:48;;;;;;;22.20;3.60;;;9.30;99.90;;;;;;5033783;28;20041;-84
2023/01/05 04:16:13;;;;;;;15.20;3.35;;;9.20;99.90;;;;;;5050773;28;20040;-85
2023/01/05 04:18:39;;;;;;;22.73;3.38;;;9.20;99.90;;;;;;5047823;28;20033;-84
2023/01/05 04:21:05;;;;;;;27.50;4.45;;;9.30;99.90;;;;;;5050500;28;20059;-84
2023/01/05 04:23:32;;;;;;;28.10;4.75;;;9.30;99.90;;;;;;5042884;28;20037;-84
2023/01/05 04:25:57;;;;;;;23.00;4.18;;;9.30;99.90;;;;;;5049343;28;20048;-85
2023/01/05 04:28:23;;;;;;;21.58;4.43;;;9.40;99.90;;;;;;5044662;28;20037;-85
2023/01/05 04:30:50;;;;;;;22.90;3.80;;;9.40;99.90;;;;;;5050353;28;20061;-84
2023/01/05 04:33:16;;;;;;;24.80;4.03;;;9.40;99.90;;;;;;5050557;28;20483;-85
2023/01/05 04:35:41;;;;;;;15.05;3.47;;;9.70;99.90;;;;;;5033386;28;20055;-86
2023/01/05 04:38:07;;;;;;;25.42;4.15;;;9.40;99.90;;;;;;5049919;28;20103;-86
2023/01/05 04:40:32;;;;;;;18.85;3.47;;;9.40;99.90;;;;;;5033154;28;20387;-85
2023/01/05 04:42:58;;;;;;;18.67;3.58;;;9.40;99.90;;;;;;5032811;28;20127;-84
2023/01/05 04:45:24;;;;;;;17.98;4.43;;;9.50;99.90;;;;;;5049930;28;20136;-84
2023/01/05 04:47:50;;;;;;;19.75;3.85;;;9.50;99.90;;;;;;5033871;28;20457;-85
2023/01/05 04:50:16;;;;;;;20.00;3.88;;;9.40;99.90;;;;;;5042082;28;20406;-85
2023/01/05 04:52:42;;;;;;;22.75;4.15;;;9.50;99.90;;;;;;5049858;28;20402;-85
2023/01/05 04:55:08;;;;;;;20.77;3.60;;;9.40;99.90;;;;;;5050096;28;20085;-85
2023/01/05 04:57:34;;;;;;;17.90;3.15;;;9.40;99.90;;;;;;5048366;28;20037;-83
2023/01/05 04:59:59;;;;;;;22.75;3.55;;;9.40;99.90;;;;;;5050715;28;20041;-86
2023/01/05 05:02:25;;;;;;;16.95;3.63;;;9.40;99.90;;;;;;5033293;28;20439;-85
2023/01/05 05:04:51;;;;;;;20.23;3.65;;;9.40;99.90;;;;;;5050584;28;20075;-85
2023/01/05 05:07:17;;;;;;;15.40;3.10;;;9.60;99.90;;;;;;5048608;28;20591;-85
2023/01/05 05:09:42;;;;;;;19.70;3.95;;;9.50;99.90;;;;;;5032708;28;20104;-86
2023/01/05 05:12:08;;;;;;;14.52;3.05;;;9.50;99.90;;;;;;5032513;28;20467;-86
2023/01/05 05:14:34;;;;;;;17.15;3.30;;;9.50;99.90;;;;;;5025333;28;20494;-85
2023/01/05 05:16:59;;;;;;;16.63;3.28;;;9.50;99.90;;;;;;5046015;28;20051;-85
2023/01/05 05:19:25;;;;;;;20.00;3.53;;;9.50;99.90;;;;;;5031139;28;20067;-86
2023/01/05 05:21:50;;;;;;;17.35;3.20;;;9.60;99.90;;;;;;5045599;28;20041;-86
2023/01/05 05:24:16;;;;;;;20.15;3.45;;;9.60;99.90;;;;;;5049609;28;20041;-86
2023/01/05 05:26:41;;;;;;;18.23;3.47;;;9.70;99.90;;;;;;5026826;28;20094;-84
2023/01/05 05:29:07;;;;;;;18.75;3.45;;;9.60;99.90;;;;;;5031860;28;20428;-85
2023/01/05 05:31:32;;;;;;;13.65;3.83;;;9.60;99.90;;;;;;5050585;28;20037;-86
2023/01/05 05:33:58;;;;;;;22.58;4.65;;;9.60;99.90;;;;;;5048759;28;20037;-84
2023/01/05 05:36:24;;;;;;;20.77;3.70;;;9.60;99.90;;;;;;5033768;28;20056;-83
2023/01/05 05:38:49;;;;;;;15.43;3.67;;;9.60;99.90;;;;;;5049283;28;20107;-84
2023/01/05 05:41:15;;;;;;;17.48;3.15;;;9.60;99.90;;;;;;5049762;28;20033;-83
2023/01/05 05:43:40;;;;;;;19.77;3.47;;;9.50;99.90;;;;;;5031865;28;20494;-85
2023/01/05 05:46:06;;;;;;;20.13;3.90;;;9.60;99.90;;;;;;5044422;28;20041;-86
2023/01/05 05:48:31;;;;;;;18.50;3.50;;;9.50;99.90;;;;;;5048653;28;20051;-85
2023/01/05 05:50:57;;;;;;;20.27;3.38;;;9.50;99.90;;;;;;5032536;28;20085;-84
2023/01/05 05:53:22;;;;;;;30.25;3.65;;;9.50;99.90;;;;;;5047847;28;20037;-83
2023/01/05 05:55:49;;;;;;;24.08;3.53;;;9.50;99.90;;;;;;5031829;28;20044;-84
2023/01/05 05:58:16;;;;;;;23.10;4.25;;;9.50;99.90;;;;;;5049123;28;20068;-84
2023/01/05 06:00:42;;;;;;;19.08;3.10;;;9.50;99.90;;;;;;5044732;28;20047;-83
2023/01/05 06:03:07;;;;;;;21.92;3.78;;;9.50;99.90;;;;;;5046237;28;20037;-83
2023/01/05 06:05:33;;;;;;;20.55;3.83;;;9.50;99.90;;;;;;5034320;28;20102;-85
2023/01/05 06:07:59;;;;;;;16.55;3.10;;;9.50;99.90;;;;;;5052720;28;20086;-84
2023/01/05 06:10:24;;;;;;;21.00;3.65;;;9.60;99.90;;;;;;5053048;28;20059;-85
2023/01/05 06:12:53;;;;;;;17.85;3.33;;;9.60;99.90;;;;;;5052140;28;20037;-85
2023/01/05 06:15:18;;;;;;;17.23;2.97;;;9.60;99.90;;;;;;5049455;28;20045;-85
2023/01/05 06:17:45;;;;;;;22.98;4.32;;;9.60;99.90;;;;;;5053478;28;20498;-86
2023/01/05 06:20:11;;;;;;;17.38;3.63;;;9.60;99.90;;;;;;5053284;28;20080;-85
2023/01/05 06:22:36;;;;;;;26.55;4.22;;;9.40;99.90;;;;;;5050801;28;20521;-85
2023/01/05 06:25:03;;;;;;;17.17;3.58;;;9.60;99.90;;;;;;5051711;28;20103;-84
2023/01/05 06:27:29;;;;;;;17.08;3.40;;;9.60;99.90;;;;;;5051125;28;20095;-85
2023/01/05 06:29:54;;;;;;;18.63;4.22;;;9.50;99.90;;;;;;5053694;28;20041;-84
2023/01/05 06:32:20;;;;;;;21.38;3.70;;;9.60;99.90;;;;;;5051618;28;20488;-86
2023/01/05 06:34:45;;;;;;;19.90;3.00;;;9.60;99.90;;;;;;5046848;28;20037;-83
2023/01/05 06:37:11;;;;;;;21.75;3.92;;;9.60;99.90;;;;;;5047577;28;20596;-84
2023/01/05 06:39:36;;;;;;;19.23;4.00;;;9.50;99.90;;;;;;5052100;28;20044;-84
2023/01/05 06:42:02;;;;;;;20.80;3.35;;;9.50;99.90;;;;;;5053521;28;20400;-83
2023/01/05 06:44:27;;;;;;;15.52;3.42;;;9.50;99.90;;;;;;5035524;28;20440;-86
2023/01/05 06:46:53;;;;;;;21.13;3.10;;;9.50;99.90;;;;;;5053399;28;20044;-84
2023/01/05 06:49:19;;;;;;;19.45;3.90;;;9.50;99.90;;;;;;5053318;28;20033;-85
2023/01/05 06:51:44;;;;;;;24.25;4.60;;;9.60;99.90;;;;;;5052481;28;20037;-85
2023/01/05 06:54:10;;;;;;;24.05;3.42;;;9.50;99.90;;;;;;5036398;28;20032;-85
2023/01/05 06:56:35;;;;;;;19.67;3.35;;;9.60;99.90;;;;;;5036856;28;20099;-84
2023/01/05 06:59:01;;;;;;;18.55;3.30;;;9.60;99.90;;;;;;5034465;28;20099;-85
2023/01/05 07:01:26;;;;;;;19.67;3.25;;;9.60;99.90;;;;;;5052338;28;20037;-84
2023/01/05 07:03:52;;;;;;;25.20;4.80;;;9.50;99.90;;;;;;5026639;28;20038;-85
2023/01/05 07:06:17;;;;;;;18.25;3.40;;;9.50;99.90;;;;;;5052122;28;20085;-84
2023/01/05 07:08:43;;;;;;;28.23;4.00;;;9.50;99.90;;;;;;5051276;28;20083;-85
2023/01/05 07:11:09;;;;;;;20.02;3.60;;;9.50;99.90;;;;;;5031267;28;20037;-85
2023/01/05 07:13:35;;;;;;;17.00;3.45;;;9.50;99.90;;;;;;5034737;28;20072;-85
2023/01/05 07:16:00;;;;;;;17.40;3.67;;;9.50;99.90;;;;;;5034504;28;20080;-85
2023/01/05 07:18:26;;;;;;;19.45;3.70;;;9.50;99.90;;;;;;5052558;28;20063;-87
2023/01/05 07:20:52;;;;;;;18.63;3.53;;;9.50;99.90;;;;;;5045478;28;20033;-85
2023/01/05 07:23:17;;;;;;;19.70;3.70;;;9.50;99.90;;;;;;5042603;28;20058;-84
2023/01/05 07:25:43;;;;;;;21.27;4.10;;;9.40;99.90;;;;;;5035310;28;20041;-85
2023/01/05 07:28:08;;;;;;;17.50;4.22;;;9.40;99.90;;;;;;5045613;28;20044;-83
2023/01/05 07:30:34;;;;;;;18.25;3.78;;;9.40;99.90;;;;;;5034365;28;20043;-82
2023/01/05 07:33:00;;;;;;;19.20;3.67;;;9.40;99.90;;;;;;5052085;28;20391;-83
2023/01/05 07:35:26;;;;;;;27.60;4.65;;;9.40;99.90;;;;;;5049645;28;20079;-84
2023/01/05 07:37:54;;;;;;;23.63;3.35;;;9.40;99.90;;;;;;5051184;28;20043;-83
2023/01/05 07:40:20;;;;;;;19.05;3.50;;;9.40;99.90;;;;;;5036243;28;20045;-84
2023/01/05 07:42:50;;;;;;;21.05;3.67;;;9.40;99.90;;;;;;5052368;28;20064;-84
2023/01/05 07:45:16;;;;;;;18.60;3.67;;;9.40;99.90;;;;;;5051992;28;20041;-84
2023/01/05 07:47:41;;;;;;;22.90;4.05;;;9.40;99.90;;;;;;5032634;28;20032;-84
2023/01/05 07:50:07;;;;;;;24.45;4.35;;;9.40;99.90;;;;;;5031778;28;20037;-84
2023/01/05 07:52:33;;;;;;;21.15;3.60;;;9.40;99.90;;;;;;5031741;28;20033;-83
2023/01/05 07:54:58;;;;;;;22.88;4.45;;;9.30;99.90;;;;;;5051971;28;20336;-84
2023/01/05 07:57:24;;;;;;;18.77;4.00;;;9.40;99.90;;;;;;5044677;28;20479;-83
2023/01/05 07:59:49;;;;;;;21.17;4.28;;;9.30;99.90;;;;;;5045885;28;20055;-84
2023/01/05 08:02:15;;;;;;;18.17;3.45;;;9.30;99.90;;;;;;5027437;28;20044;-86
2023/01/05 08:04:40;;;;;;;18.17;3.38;;;9.30;99.90;;;;;;5027995;28;20045;-85
2023/01/05 08:07:09;;;;;;;21.52;3.60;;;9.30;99.90;;;;;;5051808;28;20044;-84
2023/01/05 08:12:22;;;;;;;24.90;4.32;;;9.40;99.90;;;;;;5052503;28;20041;-84
2023/01/05 08:14:48;;;;;;;20.17;3.00;;;9.30;99.90;;;;;;5051768;28;20037;-84
2023/01/05 08:17:13;;;;;;;18.38;3.63;;;9.40;99.90;;;;;;5048930;28;20044;-86
2023/01/05 08:19:39;;;;;;;21.80;4.00;;;9.30;99.90;;;;;;5025912;28;20036;-85
2023/01/05 08:22:04;;;;;;;20.83;3.75;;;9.30;99.90;;;;;;5048378;28;20033;-84
2023/01/05 08:24:30;;;;;;;18.83;3.65;;;9.30;99.90;;;;;;5049677;28;20041;-84
2023/01/05 08:26:55;;;;;;;20.85;3.70;;;9.30;99.90;;;;;;5049924;28;20045;-85
2023/01/05 08:29:21;;;;;;;20.98;4.00;;;9.30;99.90;;;;;;5034569;28;20482;-84
2023/01/05 08:31:46;;;;;;;20.27;3.40;;;9.30;99.90;;;;;;5034956;28;20112;-85
2023/01/05 08:34:12;;;;;;;23.85;4.05;;;9.40;99.90;;;;;;5048711;28;20040;-85
2023/01/05 08:36:39;;;;;;;25.05;3.92;;;9.40;99.90;;;;;;5041499;28;20064;-85
2023/01/05 08:39:05;;;;;;;18.48;3.45;;;9.30;99.90;;;;;;5049105;28;20513;-86
2023/01/05 08:41:34;;;;;;;28.17;4.18;;;9.40;99.90;;;;;;5034609;28;20158;-85
2023/01/05 08:44:02;;;;;;;20.52;4.00;;;9.40;99.90;;;;;;5050853;28;20047;-85
2023/01/05 08:46:33;;;;;;;25.95;4.07;;;9.40;99.90;;;;;;5052378;28;20104;-86
2023/01/05 08:49:00;;;;;;;28.33;3.40;;;9.40;99.90;;;;;;5049318;28;20110;-85
2023/01/05 08:51:26;;;;;;;20.23;3.80;;;9.40;99.90;;;;;;5029645;28;20033;-85
2023/01/05 08:53:52;;;;;;;21.38;3.75;;;9.40;99.90;;;;;;5050254;28;20087;-85
2023/01/05 08:56:18;;;;;;;22.67;3.90;;;9.40;99.90;;;;;;5050545;28;20079;-85
2023/01/05 08:58:44;;;;;;;20.20;3.30;;;9.40;99.90;;;;;;5015026;28;20060;-85
2023/01/05 09:01:12;;;;;;;21.02;3.75;;;9.40;99.90;;;;;;5038438;28;20040;-84
2023/01/05 09:03:38;;;;;;;20.35;3.78;;;9.40;99.90;;;;;;5049050;28;20045;-86
2023/01/05 09:06:05;;;;;;;20.73;3.40;;;9.40;99.90;;;;;;5047283;28;20418;-85
2023/01/05 09:08:32;;;;;;;19.75;3.25;;;9.40;99.90;;;;;;5041581;28;20038;-85
2023/01/05 09:11:24;;;;;;;21.33;3.70;;;9.40;99.90;;;;;;5046634;28;20041;-85
2023/01/05 09:13:52;;;;;;;21.23;3.33;;;9.40;99.90;;;;;;5051406;28;20041;-84
2023/01/05 09:16:21;;;;;;;19.77;3.63;;;9.40;99.90;;;;;;5049704;28;20048;-85
2023/01/05 09:18:47;;;;;;;17.88;4.05;;;9.40;99.90;;;;;;5028841;28;20037;-85
2023/01/05 09:21:13;;;;;;;15.93;3.10;;;9.50;99.90;;;;;;5051069;28;20033;-84
2023/01/05 09:23:39;;;;;;;16.30;3.70;;;9.40;99.90;;;;;;5049336;28;20033;-84
2023/01/05 09:26:07;;;;;;;22.02;4.00;;;9.50;99.90;;;;;;5045801;28;20106;-85
2023/01/05 09:28:35;;;;;;;19.35;3.30;;;9.50;99.90;;;;;;5049078;28;20047;-85
2023/01/05 09:31:15;;;;;;;16.55;3.65;;;9.50;99.90;;;;;;5031131;28;20154;-85
2023/01/05 09:33:41;;;;;;;22.80;3.70;;;9.50;99.90;;;;;;5026896;28;20045;-85
2023/01/05 09:36:09;;;;;;;16.73;3.28;;;9.50;99.90;;;;;;5032099;28;20124;-84
2023/01/05 09:38:35;;;;;;;19.73;3.35;;;9.50;99.90;;;;;;5049198;28;20410;-85
2023/01/05 09:41:07;;;;;;;22.77;4.13;;;9.50;99.90;;;;;;5031977;28;20051;-86
2023/01/05 09:43:37;;;;;;;17.45;3.97;;;9.60;99.90;;;;;;5042135;28;20036;-85
2023/01/05 09:46:14;;;;;;;18.25;3.20;;;9.60;99.90;;;;;;5033257;28;20095;-85
2023/01/05 09:48:43;;;;;;;22.27;3.38;;;9.60;99.90;;;;;;5058778;28;20044;-84
2023/01/05 09:51:09;;;;;;;15.30;3.45;;;9.60;99.90;;;;;;5033389;28;20044;-84
2023/01/05 09:53:37;;;;;;;19.00;3.10;;;9.60;99.90;;;;;;5038386;28;20081;-86
2023/01/05 09:56:03;;;;;;;20.33;2.90;;;9.60;99.90;;;;;;5040137;28;20099;-85
2023/01/05 09:58:35;;;;;;;18.90;3.58;;;9.60;99.90;;;;;;5049635;28;20036;-84
2023/01/05 10:01:09;;;;;;;13.60;2.90;;;9.60;99.90;;;;;;5018820;28;20128;-85
2023/01/05 10:03:50;;;;;;;18.30;2.70;;;9.60;99.90;;;;;;5039068;28;20037;-85
2023/01/05 10:06:28;;;;;;;18.77;3.15;;;9.50;99.90;;;;;;5039027;28;20048;-85
2023/01/05 10:08:55;;;;;;;18.25;2.83;;;9.50;99.90;;;;;;5047037;28;20517;-85
2023/01/05 10:14:40;;;;;;;12.00;2.85;;;9.50;99.90;;;;;;5046770;28;20178;-84
2023/01/05 10:17:21;;;;;;;17.55;3.58;;;9.40;99.90;;;;;;5045820;28;20041;-85
2023/01/05 10:19:48;;;;;;;13.20;2.30;;;9.40;99.90;;;;;;5049467;28;20033;-85
2023/01/05 10:22:32;;;;;;;12.25;2.95;;;9.40;99.90;;;;;;5046027;28;20155;-85
2023/01/05 10:25:17;;;;;;;13.77;2.75;;;9.40;99.90;;;;;;5046958;28;20445;-84
2023/01/05 10:27:59;;;;;;;15.15;3.00;;;9.40;99.90;;;;;;5065779;28;20037;-84
2023/01/05 10:30:42;;;;;;;16.15;3.10;;;9.40;99.90;;;;;;5032086;28;20098;-85
2023/01/05 10:33:23;;;;;;;14.53;2.90;;;9.40;99.90;;;;;;5047760;28;20033;-85
2023/01/05 10:36:17;;;;;;;13.75;2.22;;;9.40;99.90;;;;;;5050004;28;20094;-85
2023/01/05 10:39:11;;;;;;;21.05;4.13;;;9.50;99.90;;;;;;5046142;28;20450;-85
2023/01/05 10:42:02;;;;;;;15.43;2.95;;;9.50;99.90;;;;;;5025659;28;20102;-86
2023/01/05 10:44:37;;;;;;;11.45;2.30;;;9.60;99.90;;;;;;5047534;28;20044;-85
2023/01/05 10:47:06;;;;;;;15.00;2.15;;;9.60;99.90;;;;;;5051949;28;20041;-85
2023/01/05 10:49:32;;;;;;;16.33;2.67;;;9.60;99.90;;;;;;5046620;28;20033;-85
2023/01/05 10:51:59;;;;;;;12.18;2.10;;;9.60;99.90;;;;;;5050436;28;20443;-85
2023/01/05 10:54:41;;;;;;;12.43;2.40;;;9.60;99.90;;;;;;5031025;28;20406;-84
2023/01/05 10:57:27;;;;;;;18.77;3.08;;;9.60;99.90;;;;;;5048448;28;20049;-84
2023/01/05 10:59:59;;;;;;;14.27;2.47;;;9.60;99.90;;;;;;5050566;28;20064;-84
2023/01/05 11:02:28;;;;;;;11.82;2.13;;;9.60;99.90;;;;;;5050455;28;20037;-84
2023/01/05 11:05:04;;;;;;;15.38;2.15;;;9.70;99.90;;;;;;5050458;28;20045;-84
2023/01/05 11:07:29;;;;;;;12.32;2.00;;;9.60;99.90;;;;;;5046440;28;20112;-85
2023/01/05 11:09:55;;;;;;;13.07;2.75;;;9.60;99.90;;;;;;5046786;28;20503;-83
2023/01/05 11:12:23;;;;;;;15.52;2.90;;;9.60;99.90;;;;;;5052565;28;20400;-86
2023/01/05 11:14:52;;;;;;;16.90;2.80;;;9.60;99.90;;;;;;5052169;28;20033;-85
2023/01/05 11:17:20;;;;;;;12.13;2.50;;;9.50;99.90;;;;;;5053874;28;20045;-86
2023/01/05 11:19:52;;;;;;;16.35;2.90;;;9.50;99.90;;;;;;5052505;28;20033;-84
2023/01/05 11:22:35;;;;;;;13.88;2.40;;;9.50;99.90;;;;;;5051543;28;20076;-86
2023/01/05 11:25:25;;;;;;;17.25;3.05;;;9.50;99.90;;;;;;5035507;28;20060;-85
2023/01/05 11:28:13;;;;;;;18.52;2.85;;;9.40;99.90;;;;;;5048915;28;20082;-86
2023/01/05 11:30:59;;;;;;;15.50;3.03;;;9.40;99.90;;;;;;5031441;28;20432;-86
2023/01/05 11:33:28;;;;;;;20.65;3.42;;;9.50;99.90;;;;;;5052591;28;20033;-85
2023/01/05 11:35:55;;;;;;;17.52;4.05;;;9.50;99.90;;;;;;5052929;28;20413;-85
2023/01/05 11:38:23;;;;;;;16.02;2.80;;;9.50;99.90;;;;;;5044265;28;20438;-85
2023/01/05 11:40:49;;;;;;;17.45;3.67;;;9.50;99.90;;;;;;5044804;28;20433;-84
2023/01/05 11:43:18;;;;;;;16.58;3.03;;;9.50;99.90;;;;;;5044730;28;20053;-84
2023/01/05 11:45:53;;;;;;;13.77;2.40;;;9.50;99.90;;;;;;5046815;28;20033;-84
2023/01/05 11:48:22;;;;;;;21.17;3.10;;;9.60;99.90;;;;;;5028021;28;20068;-85
2023/01/05 11:50:50;;;;;;;17.83;3.03;;;9.60;99.90;;;;;;5050679;28;20170;-85
2023/01/05 11:53:28;;;;;;;16.75;2.65;;;9.60;99.90;;;;;;5023960;28;20030;-85
2023/01/05 11:56:20;;;;;;;14.82;2.50;;;9.70;99.90;;;;;;5047488;28;20044;-85
2023/01/05 11:58:53;;;;;;;18.48;3.28;;;9.70;99.90;;;;;;5045550;28;20068;-85
2023/01/05 12:01:56;;;;;;;17.73;2.75;;;9.80;99.90;;;;;;5047292;28;20033;-86
2023/01/05 12:04:44;;;;;;;18.25;2.95;;;9.90;99.90;;;;;;5043954;28;20423;-86
2023/01/05 12:07:29;;;;;;;14.70;2.65;;;9.90;99.90;;;;;;5047665;28;20041;-85
2023/01/05 12:10:19;;;;;;;15.93;2.75;;;10.00;99.90;;;;;;5035087;28;20033;-86
2023/01/05 12:13:17;;;;;;;14.75;2.33;;;10.10;99.90;;;;;;5045554;28;20376;-85
2023/01/05 12:15:54;;;;;;;11.93;2.20;;;10.20;99.90;;;;;;5038430;28;20418;-85
2023/01/05 12:18:39;;;;;;;12.60;2.42;;;10.30;99.90;;;;;;5049814;28;20402;-85
2023/01/05 12:21:24;;;;;;;11.80;2.10;;;10.40;99.90;;;;;;5027901;28;20053;-85
2023/01/05 12:24:17;;;;;;;10.90;2.42;;;10.40;99.90;;;;;;5045486;28;20044;-85
2023/01/05 12:27:00;;;;;;;14.88;3.10;;;10.40;99.90;;;;;;5046573;28;20040;-85
2023/01/05 12:29:48;;;;;;;11.20;2.00;;;10.30;99.90;;;;;;5039837;28;20056;-85
2023/01/05 12:32:43;;;;;;;11.13;2.30;;;10.30;99.90;;;;;;5034301;28;20092;-85
2023/01/05 12:35:47;;;;;;;10.20;2.22;;;10.30;99.90;;;;;;5048308;28;20414;-84
2023/01/05 12:38:38;;;;;;;8.93;1.95;;;10.20;99.90;;;;;;5042503;28;20045;-86
2023/01/05 12:41:23;;;;;;;12.85;1.88;;;10.20;99.90;;;;;;5065281;28;20085;-85
2023/01/05 12:43:57;;;;;;;13.50;2.10;;;10.10;99.90;;;;;;5051639;28;20502;-85
2023/01/05 12:46:41;;;;;;;10.07;2.35;;;10.10;99.90;;;;;;5048745;28;20058;-85
2023/01/05 12:49:17;;;;;;;9.52;2.50;;;10.10;99.90;;;;;;5031736;28;20120;-85
2023/01/05 12:51:57;;;;;;;10.70;3.33;;;10.10;99.90;;;;;;5043480;28;20638;-83
2023/01/05 12:54:40;;;;;;;15.25;2.97;;;10.20;99.90;;;;;;5064527;28;20037;-85
2023/01/05 12:57:21;;;;;;;13.73;2.90;;;10.20;99.90;;;;;;5045147;28;20040;-84
2023/01/05 12:59:55;;;;;;;15.88;3.20;;;10.20;99.90;;;;;;5050432;28;20037;-85
2023/01/05 13:02:43;;;;;;;14.95;3.40;;;10.20;99.90;;;;;;5048293;28;20542;-85
2023/01/05 13:05:24;;;;;;;14.30;3.17;;;10.20;99.90;;;;;;5050149;28;20037;-85
2023/01/05 13:07:55;;;;;;;17.08;3.10;;;10.10;99.90;;;;;;5034925;28;20082;-85
2023/01/05 13:10:34;;;;;;;12.05;2.72;;;10.10;99.90;;;;;;5042851;28;20033;-85
2023/01/05 13:13:04;;;;;;;15.45;3.00;;;10.10;99.90;;;;;;5041241;28;20039;-85
2023/01/05 13:15:52;;;;;;;17.15;3.78;;;10.10;99.90;;;;;;5027418;28;20083;-85
2023/01/05 13:18:21;;;;;;;17.27;3.67;;;10.10;99.90;;;;;;5049710;28;20602;-84
2023/01/05 13:20:56;;;;;;;14.32;2.88;;;10.10;99.90;;;;;;5029063;28;20090;-85
2023/01/05 13:23:30;;;;;;;12.20;2.90;;;10.10;99.90;;;;;;5049408;28;20091;-85
2023/01/05 13:26:02;;;;;;;19.10;3.80;;;10.10;99.90;;;;;;5041513;28;20427;-84
2023/01/05 13:28:28;;;;;;;12.17;2.50;;;10.10;99.90;;;;;;5047046;28;20033;-84
2023/01/05 13:31:30;;;;;;;11.40;2.50;;;10.10;99.90;;;;;;5025641;28;20040;-84
2023/01/05 13:34:09;;;;;;;12.02;2.63;;;10.10;99.90;;;;;;5035667;28;20160;-84
2023/01/05 13:37:06;;;;;;;13.32;2.65;;;10.00;99.90;;;;;;5046179;28;20037;-83
2023/01/05 13:40:12;;;;;;;12.20;2.72;;;10.00;99.90;;;;;;5043153;28;20056;-83
2023/01/05 13:43:18;;;;;;;15.75;2.90;;;10.00;99.90;;;;;;5045551;28;20037;-84